Time;durP1;ratioP1;P1;durP2;ratioP2;P2;SDS_P1;SDS_P2;PMS_P1;PMS_P2;Temp;Humidity;BMP_temperature;BMP_pressure;BME280_temperature;BME280_humidity;BME280_pressure;Samples;Min_cycle;Max_cycle;Signal;HPM_P1;HPM_P2
2022/02/20 00:00:42;;;;;;;0.50;0.50;;;;;;;;;;5021029;28;20402;-64
2022/02/20 00:03:09;;;;;;;0.50;0.50;;;;;;;;;;5020051;28;20651;-63
2022/02/20 00:05:36;;;;;;;0.50;0.50;;;;;;;;;;5021936;28;20984;-64
2022/02/20 00:08:02;;;;;;;0.50;0.50;;;;;;;;;;5020595;28;20173;-64
2022/02/20 00:10:28;;;;;;;0.50;0.50;;;;;;;;;;5022259;28;20184;-63
2022/02/20 00:12:54;;;;;;;0.60;0.60;;;;;;;;;;5002503;28;20696;-64
2022/02/20 00:15:20;;;;;;;0.50;0.50;;;;;;;;;;5020969;28;20427;-63
2022/02/20 00:17:50;;;;;;;0.50;0.50;;;;;;;;;;5022130;28;20175;-64
2022/02/20 00:20:16;;;;;;;0.60;0.60;;;;;;;;;;5025810;28;20189;-63
2022/02/20 00:22:42;;;;;;;0.50;0.50;;;;;;;;;;5021220;28;20251;-63
2022/02/20 00:25:08;;;;;;;0.43;0.43;;;;;;;;;;5019642;28;20557;-64
2022/02/20 00:27:34;;;;;;;0.50;0.50;;;;;;;;;;5021591;28;20242;-63
2022/02/20 00:30:00;;;;;;;0.50;0.50;;;;;;;;;;5024610;28;20176;-63
2022/02/20 00:32:26;;;;;;;0.50;0.50;;;;;;;;;;5005658;28;20678;-63
2022/02/20 00:34:52;;;;;;;0.50;0.50;;;;;;;;;;5025128;28;20668;-63
2022/02/20 00:37:18;;;;;;;0.50;0.50;;;;;;;;;;5023975;28;20206;-63
2022/02/20 00:39:44;;;;;;;0.50;0.50;;;;;;;;;;5025803;28;20929;-63
2022/02/20 00:42:10;;;;;;;0.50;0.50;;;;;;;;;;5005077;28;20186;-63
2022/02/20 00:44:36;;;;;;;0.50;0.50;;;;;;;;;;4991656;28;20440;-63
2022/02/20 00:47:02;;;;;;;0.50;0.50;;;;;;;;;;5024373;28;20235;-63
2022/02/20 00:49:28;;;;;;;0.50;0.50;;;;;;;;;;5017462;28;20420;-63
2022/02/20 00:51:54;;;;;;;0.50;0.50;;;;;;;;;;5013954;28;20700;-63
2022/02/20 00:54:20;;;;;;;0.50;0.50;;;;;;;;;;5014085;28;20793;-63
2022/02/20 00:56:46;;;;;;;0.50;0.50;;;;;;;;;;4996731;28;20504;-63
2022/02/20 00:59:12;;;;;;;0.50;0.50;;;;;;;;;;5014217;28;20442;-63
2022/02/20 01:01:38;;;;;;;0.50;0.50;;;;;;;;;;5013895;28;20418;-65
2022/02/20 01:04:04;;;;;;;0.60;0.60;;;;;;;;;;4996444;28;20437;-63
2022/02/20 01:06:30;;;;;;;0.50;0.50;;;;;;;;;;5014008;28;20582;-63
2022/02/20 01:08:56;;;;;;;0.50;0.50;;;;;;;;;;5014023;28;20176;-63
2022/02/20 01:11:22;;;;;;;0.50;0.50;;;;;;;;;;5013677;28;20209;-63
2022/02/20 01:13:48;;;;;;;0.50;0.50;;;;;;;;;;5013929;28;20270;-63
2022/02/20 01:16:15;;;;;;;0.50;0.50;;;;;;;;;;5013896;28;20405;-63
2022/02/20 01:18:41;;;;;;;0.50;0.50;;;;;;;;;;4996356;28;20313;-63
2022/02/20 01:21:07;;;;;;;0.50;0.50;;;;;;;;;;5013454;28;20187;-63
2022/02/20 01:23:33;;;;;;;0.50;0.50;;;;;;;;;;5013782;28;20177;-63
2022/02/20 01:25:59;;;;;;;0.50;0.50;;;;;;;;;;5017697;22;20596;-62
2022/02/20 01:28:25;;;;;;;0.50;0.50;;;;;;;;;;4999880;28;20310;-62
2022/02/20 01:30:51;;;;;;;0.50;0.50;;;;;;;;;;4993765;28;20181;-62
2022/02/20 01:33:17;;;;;;;0.50;0.50;;;;;;;;;;4993899;28;20208;-62
2022/02/20 01:35:43;;;;;;;0.50;0.50;;;;;;;;;;4993904;28;20510;-62
2022/02/20 01:38:09;;;;;;;0.50;0.50;;;;;;;;;;4993958;28;20628;-62
2022/02/20 01:40:35;;;;;;;0.50;0.50;;;;;;;;;;4993023;28;20226;-62
2022/02/20 01:43:02;;;;;;;0.50;0.50;;;;;;;;;;4993706;28;20410;-62
2022/02/20 01:45:28;;;;;;;0.50;0.50;;;;;;;;;;4993723;28;20201;-62
2022/02/20 01:47:54;;;;;;;0.60;0.60;;;;;;;;;;4993746;28;20236;-62
2022/02/20 01:50:20;;;;;;;0.50;0.50;;;;;;;;;;4993463;28;20184;-61
2022/02/20 01:52:46;;;;;;;0.50;0.50;;;;;;;;;;4993622;28;20554;-62
2022/02/20 01:55:13;;;;;;;0.50;0.50;;;;;;;;;;4993532;28;20223;-62
2022/02/20 01:57:41;;;;;;;0.50;0.50;;;;;;;;;;4999600;28;20208;-62
2022/02/20 02:00:13;;;;;;;0.50;0.50;;;;;;;;;;4993585;28;20173;-62
2022/02/20 02:02:39;;;;;;;0.40;0.40;;;;;;;;;;4993775;28;20571;-62
2022/02/20 02:05:05;;;;;;;0.50;0.50;;;;;;;;;;4993408;28;20211;-62
2022/02/20 02:07:31;;;;;;;0.50;0.50;;;;;;;;;;4993583;28;20414;-62
2022/02/20 02:09:58;;;;;;;0.60;0.60;;;;;;;;;;4992871;28;20525;-62
2022/02/20 02:12:24;;;;;;;0.60;0.60;;;;;;;;;;4992938;28;20804;-62
2022/02/20 02:15:04;;;;;;;0.50;0.50;;;;;;;;;;4993153;28;20200;-62
2022/02/20 02:17:30;;;;;;;0.60;0.60;;;;;;;;;;4993096;28;20183;-62
2022/02/20 02:19:56;;;;;;;0.40;0.40;;;;;;;;;;4993256;28;20180;-62
2022/02/20 02:22:23;;;;;;;0.50;0.50;;;;;;;;;;4992931;28;20477;-65
2022/02/20 02:24:49;;;;;;;0.50;0.50;;;;;;;;;;4992803;28;20452;-64
2022/02/20 02:27:16;;;;;;;0.50;0.50;;;;;;;;;;4993097;28;20183;-65
2022/02/20 02:29:43;;;;;;;0.50;0.50;;;;;;;;;;4993045;28;20177;-64
2022/02/20 02:32:09;;;;;;;0.50;0.50;;;;;;;;;;4992517;28;20207;-64
2022/02/20 02:34:36;;;;;;;0.45;0.45;;;;;;;;;;4992844;28;20684;-64
2022/02/20 02:37:03;;;;;;;0.50;0.50;;;;;;;;;;4992870;28;20184;-63
2022/02/20 02:39:29;;;;;;;0.50;0.50;;;;;;;;;;4992828;28;20173;-62
2022/02/20 02:41:55;;;;;;;0.50;0.50;;;;;;;;;;4992562;28;20559;-64
2022/02/20 02:44:21;;;;;;;0.60;0.60;;;;;;;;;;4992733;28;20181;-63
2022/02/20 02:46:47;;;;;;;0.50;0.50;;;;;;;;;;4992644;28;20553;-62
2022/02/20 02:49:13;;;;;;;0.50;0.50;;;;;;;;;;4992661;28;20890;-61
2022/02/20 02:51:39;;;;;;;0.40;0.40;;;;;;;;;;4974042;28;20983;-62
2022/02/20 02:54:09;;;;;;;0.50;0.50;;;;;;;;;;4992584;28;20182;-62
2022/02/20 02:56:35;;;;;;;0.50;0.50;;;;;;;;;;4992590;28;20181;-62
2022/02/20 02:59:02;;;;;;;0.50;0.50;;;;;;;;;;4992554;28;20178;-61
2022/02/20 03:01:28;;;;;;;0.50;0.50;;;;;;;;;;4992221;28;20268;-62
2022/02/20 03:03:54;;;;;;;0.50;0.50;;;;;;;;;;4992808;28;20209;-62
2022/02/20 03:06:21;;;;;;;0.50;0.50;;;;;;;;;;4992482;28;21002;-61
2022/02/20 03:08:46;;;;;;;0.43;0.43;;;;;;;;;;4992504;28;20679;-62
2022/02/20 03:11:12;;;;;;;0.50;0.50;;;;;;;;;;4992015;28;20260;-62
2022/02/20 03:13:39;;;;;;;0.50;0.50;;;;;;;;;;4992346;28;20416;-62
2022/02/20 03:16:05;;;;;;;0.60;0.60;;;;;;;;;;4992464;28;20847;-62
2022/02/20 03:18:32;;;;;;;0.60;0.60;;;;;;;;;;4992248;28;20221;-62
2022/02/20 03:21:02;;;;;;;0.50;0.50;;;;;;;;;;4992019;28;20178;-62
2022/02/20 03:23:28;;;;;;;0.50;0.50;;;;;;;;;;4992538;28;20186;-62
2022/02/20 03:25:54;;;;;;;0.50;0.50;;;;;;;;;;4992133;28;20291;-62
2022/02/20 03:28:20;;;;;;;0.50;0.50;;;;;;;;;;4992143;28;20275;-62
2022/02/20 03:30:46;;;;;;;0.50;0.50;;;;;;;;;;4991921;28;20446;-62
2022/02/20 03:33:14;;;;;;;0.50;0.50;;;;;;;;;;4992037;28;20283;-62
2022/02/20 03:35:40;;;;;;;0.50;0.50;;;;;;;;;;4992071;28;20429;-62
2022/02/20 03:38:06;;;;;;;0.50;0.50;;;;;;;;;;4992212;28;20260;-62
2022/02/20 03:40:32;;;;;;;0.60;0.60;;;;;;;;;;4991877;28;20506;-62
2022/02/20 03:43:00;;;;;;;0.57;0.57;;;;;;;;;;4992067;28;20210;-62
2022/02/20 03:45:28;;;;;;;0.45;0.45;;;;;;;;;;4992002;28;20336;-62
2022/02/20 03:47:56;;;;;;;0.60;0.60;;;;;;;;;;4992108;28;20655;-61
2022/02/20 03:50:22;;;;;;;0.50;0.50;;;;;;;;;;4974040;28;20194;-62
2022/02/20 03:52:50;;;;;;;0.50;0.50;;;;;;;;;;4991852;28;20200;-62
2022/02/20 03:55:17;;;;;;;0.60;0.60;;;;;;;;;;4991949;28;20197;-63
2022/02/20 03:57:43;;;;;;;0.50;0.50;;;;;;;;;;4991985;28;20177;-62
2022/02/20 04:00:20;;;;;;;0.50;0.50;;;;;;;;;;4997479;28;20233;-62
2022/02/20 04:02:45;;;;;;;0.50;0.50;;;;;;;;;;4992349;28;20191;-62
2022/02/20 04:05:13;;;;;;;0.50;0.50;;;;;;;;;;4995651;28;20194;-62
2022/02/20 04:07:39;;;;;;;0.50;0.50;;;;;;;;;;4995643;28;20472;-62
2022/02/20 04:10:06;;;;;;;0.50;0.50;;;;;;;;;;4995477;28;20176;-62
2022/02/20 04:12:32;;;;;;;0.40;0.40;;;;;;;;;;4995410;28;20683;-62
2022/02/20 04:14:58;;;;;;;0.50;0.50;;;;;;;;;;5002457;28;20201;-62
2022/02/20 04:17:28;;;;;;;0.60;0.60;;;;;;;;;;4995305;28;20228;-62
2022/02/20 04:19:54;;;;;;;0.50;0.50;;;;;;;;;;4995435;28;20168;-62
2022/02/20 04:22:21;;;;;;;0.50;0.50;;;;;;;;;;4995143;28;20179;-62
2022/02/20 04:24:47;;;;;;;0.40;0.40;;;;;;;;;;4995222;28;20546;-62
2022/02/20 04:27:13;;;;;;;0.50;0.50;;;;;;;;;;4995116;28;20184;-62
2022/02/20 04:29:39;;;;;;;0.50;0.50;;;;;;;;;;4995201;28;20247;-62
2022/02/20 04:32:05;;;;;;;0.50;0.50;;;;;;;;;;4994778;28;20373;-62
2022/02/20 04:34:31;;;;;;;0.50;0.50;;;;;;;;;;4995233;28;20460;-63
2022/02/20 04:36:57;;;;;;;0.50;0.50;;;;;;;;;;5002923;28;20182;-62
2022/02/20 04:39:23;;;;;;;0.40;0.40;;;;;;;;;;4995040;28;20181;-62
2022/02/20 04:41:49;;;;;;;0.40;0.40;;;;;;;;;;4994797;28;20478;-62
2022/02/20 04:44:15;;;;;;;0.60;0.60;;;;;;;;;;4994964;28;20175;-62
2022/02/20 04:46:41;;;;;;;0.57;0.57;;;;;;;;;;4994843;28;20766;-62
2022/02/20 04:49:08;;;;;;;0.50;0.50;;;;;;;;;;4994907;28;20174;-62
2022/02/20 04:51:36;;;;;;;0.50;0.50;;;;;;;;;;4994581;28;20209;-62
2022/02/20 04:54:02;;;;;;;0.60;0.60;;;;;;;;;;4994837;28;20544;-62
2022/02/20 04:56:28;;;;;;;0.50;0.50;;;;;;;;;;4994703;28;20631;-63
2022/02/20 04:58:54;;;;;;;0.57;0.57;;;;;;;;;;4994801;28;20217;-62
2022/02/20 05:01:22;;;;;;;0.50;0.50;;;;;;;;;;4994264;28;20496;-62
2022/02/20 05:03:48;;;;;;;0.60;0.60;;;;;;;;;;4994664;28;20164;-62
2022/02/20 05:06:14;;;;;;;0.50;0.50;;;;;;;;;;4994531;28;20702;-62
2022/02/20 05:08:40;;;;;;;0.50;0.50;;;;;;;;;;4994626;28;20408;-61
2022/02/20 05:11:06;;;;;;;0.50;0.50;;;;;;;;;;4996473;28;20171;-62
2022/02/20 05:13:32;;;;;;;0.50;0.50;;;;;;;;;;4999348;28;20207;-62
2022/02/20 05:15:58;;;;;;;0.50;0.50;;;;;;;;;;4992940;28;20440;-62
2022/02/20 05:18:24;;;;;;;0.50;0.50;;;;;;;;;;4994464;28;20971;-62
2022/02/20 05:20:54;;;;;;;0.50;0.50;;;;;;;;;;4994094;28;20199;-62
2022/02/20 05:23:21;;;;;;;0.50;0.50;;;;;;;;;;4994374;28;20752;-62
2022/02/20 05:25:47;;;;;;;0.50;0.50;;;;;;;;;;4993958;28;20208;-62
2022/02/20 05:28:13;;;;;;;0.50;0.50;;;;;;;;;;4994195;28;20689;-62
2022/02/20 05:30:39;;;;;;;0.60;0.60;;;;;;;;;;4993868;28;20408;-62
2022/02/20 05:33:05;;;;;;;0.50;0.50;;;;;;;;;;4993803;28;20459;-63
2022/02/20 05:35:31;;;;;;;0.40;0.40;;;;;;;;;;4993896;28;20429;-62
2022/02/20 05:37:57;;;;;;;0.50;0.50;;;;;;;;;;4994013;28;20465;-67
2022/02/20 05:40:24;;;;;;;0.60;0.60;;;;;;;;;;4993762;28;20926;-62
2022/02/20 05:42:51;;;;;;;0.60;0.60;;;;;;;;;;4993821;28;20187;-62
2022/02/20 05:45:17;;;;;;;0.50;0.50;;;;;;;;;;4993703;28;20219;-62
2022/02/20 05:47:43;;;;;;;0.50;0.50;;;;;;;;;;4993808;28;20235;-62
2022/02/20 05:50:10;;;;;;;0.50;0.50;;;;;;;;;;4993483;28;20406;-62
2022/02/20 05:52:36;;;;;;;0.50;0.50;;;;;;;;;;4993652;28;20210;-62
2022/02/20 05:55:02;;;;;;;0.50;0.50;;;;;;;;;;4994099;28;20713;-62
2022/02/20 05:57:28;;;;;;;0.50;0.50;;;;;;;;;;4993502;28;20222;-62
2022/02/20 05:59:54;;;;;;;0.50;0.50;;;;;;;;;;4993517;28;20272;-62
2022/02/20 06:02:20;;;;;;;0.50;0.50;;;;;;;;;;4993272;28;20915;-62
2022/02/20 06:04:46;;;;;;;0.60;0.60;;;;;;;;;;4993417;28;20431;-62
2022/02/20 06:07:12;;;;;;;0.60;0.60;;;;;;;;;;4993276;28;20406;-62
2022/02/20 06:09:38;;;;;;;0.60;0.60;;;;;;;;;;4993023;28;20406;-62
2022/02/20 06:12:04;;;;;;;0.70;0.70;;;;;;;;;;4992715;28;20455;-62
2022/02/20 06:14:30;;;;;;;0.60;0.60;;;;;;;;;;4992930;28;20954;-62
2022/02/20 06:16:56;;;;;;;0.50;0.50;;;;;;;;;;4992772;28;20212;-62
2022/02/20 06:19:22;;;;;;;0.60;0.60;;;;;;;;;;4992481;28;20790;-62
2022/02/20 06:21:48;;;;;;;0.60;0.60;;;;;;;;;;4992225;28;20981;-62
2022/02/20 06:24:13;;;;;;;0.50;0.50;;;;;;;;;;4992649;28;20854;-62
2022/02/20 06:26:39;;;;;;;0.50;0.50;;;;;;;;;;4992673;28;21002;-62
2022/02/20 06:29:05;;;;;;;0.57;0.57;;;;;;;;;;4993031;28;20419;-64
2022/02/20 06:31:31;;;;;;;0.40;0.40;;;;;;;;;;4992708;28;20403;-62
2022/02/20 06:33:57;;;;;;;0.50;0.50;;;;;;;;;;4992894;28;20183;-63
2022/02/20 06:36:23;;;;;;;0.50;0.50;;;;;;;;;;4992806;28;20433;-63
2022/02/20 06:38:49;;;;;;;0.50;0.50;;;;;;;;;;4993083;28;20217;-62
2022/02/20 06:41:15;;;;;;;0.50;0.50;;;;;;;;;;4992430;28;20421;-63
2022/02/20 06:43:41;;;;;;;0.50;0.50;;;;;;;;;;4992794;28;20891;-62
2022/02/20 06:46:07;;;;;;;0.50;0.50;;;;;;;;;;4991723;28;20256;-62
2022/02/20 06:48:33;;;;;;;0.50;0.50;;;;;;;;;;4992694;28;20427;-63
2022/02/20 06:50:59;;;;;;;0.57;0.57;;;;;;;;;;4992446;28;20426;-62
2022/02/20 06:53:25;;;;;;;0.50;0.50;;;;;;;;;;4992576;28;20514;-62
2022/02/20 06:55:51;;;;;;;0.50;0.50;;;;;;;;;;4991908;28;20447;-62
2022/02/20 06:58:17;;;;;;;0.60;0.60;;;;;;;;;;4992101;28;20428;-62
2022/02/20 07:00:43;;;;;;;0.50;0.50;;;;;;;;;;4992433;28;21012;-62
2022/02/20 07:03:09;;;;;;;0.50;0.50;;;;;;;;;;4994138;28;20912;-62
2022/02/20 07:05:35;;;;;;;0.50;0.50;;;;;;;;;;5011654;28;20449;-62
2022/02/20 07:08:01;;;;;;;0.50;0.50;;;;;;;;;;5011772;28;20429;-62
2022/02/20 07:10:27;;;;;;;0.50;0.50;;;;;;;;;;5011803;28;20879;-62
2022/02/20 07:12:53;;;;;;;0.45;0.45;;;;;;;;;;5012141;28;20468;-62
2022/02/20 07:15:19;;;;;;;0.50;0.50;;;;;;;;;;5012242;28;20193;-62
2022/02/20 07:17:45;;;;;;;0.60;0.60;;;;;;;;;;5012004;28;20206;-62
2022/02/20 07:20:11;;;;;;;0.50;0.50;;;;;;;;;;4992990;28;20420;-62
2022/02/20 07:22:37;;;;;;;0.60;0.60;;;;;;;;;;4991809;28;20428;-62
2022/02/20 07:25:04;;;;;;;1.25;1.15;;;;;;;;;;5014357;23;20226;-62
2022/02/20 07:27:36;;;;;;;0.60;0.60;;;;;;;;;;5002115;28;20279;-65
2022/02/20 07:30:03;;;;;;;0.50;0.50;;;;;;;;;;4998921;28;20195;-63
2022/02/20 07:32:29;;;;;;;0.60;0.60;;;;;;;;;;4992875;28;20262;-63
2022/02/20 07:34:55;;;;;;;0.60;0.60;;;;;;;;;;5008741;28;20661;-63
2022/02/20 07:37:20;;;;;;;0.50;0.50;;;;;;;;;;4992787;28;20420;-63
2022/02/20 07:39:47;;;;;;;0.50;0.50;;;;;;;;;;4995773;28;21160;-63
2022/02/20 07:42:13;;;;;;;0.50;0.50;;;;;;;;;;5004937;28;20433;-64
2022/02/20 07:44:39;;;;;;;0.60;0.60;;;;;;;;;;5001683;28;20188;-63
2022/02/20 07:47:05;;;;;;;0.50;0.50;;;;;;;;;;5008326;28;20756;-64
2022/02/20 07:49:31;;;;;;;0.50;0.50;;;;;;;;;;4995218;28;20200;-63
2022/02/20 07:51:57;;;;;;;0.50;0.50;;;;;;;;;;4991402;28;20252;-64
2022/02/20 07:54:24;;;;;;;0.40;0.40;;;;;;;;;;4992720;28;20455;-64
2022/02/20 07:56:50;;;;;;;0.50;0.50;;;;;;;;;;4978035;28;20866;-63
2022/02/20 07:59:16;;;;;;;0.50;0.50;;;;;;;;;;4991966;28;20261;-64
2022/02/20 08:01:42;;;;;;;0.40;0.40;;;;;;;;;;4994352;28;20273;-64
2022/02/20 08:04:08;;;;;;;0.50;0.50;;;;;;;;;;4995710;28;20447;-64
2022/02/20 08:06:34;;;;;;;0.50;0.50;;;;;;;;;;4979396;28;20436;-64
2022/02/20 08:09:03;;;;;;;0.50;0.50;;;;;;;;;;4993102;28;20546;-65
2022/02/20 08:11:30;;;;;;;0.50;0.50;;;;;;;;;;4991562;28;20412;-63
2022/02/20 08:13:57;;;;;;;0.40;0.40;;;;;;;;;;4996928;28;20197;-63
2022/02/20 08:16:23;;;;;;;0.50;0.50;;;;;;;;;;5005890;28;20182;-63
2022/02/20 08:18:49;;;;;;;0.50;0.50;;;;;;;;;;4995647;28;20198;-63
2022/02/20 08:21:15;;;;;;;0.50;0.50;;;;;;;;;;4991749;28;20174;-63
2022/02/20 08:23:41;;;;;;;0.50;0.50;;;;;;;;;;4997133;28;20182;-62
2022/02/20 08:26:07;;;;;;;0.60;0.60;;;;;;;;;;4998385;28;20208;-63
2022/02/20 08:28:33;;;;;;;0.50;0.50;;;;;;;;;;4993800;28;20469;-62
2022/02/20 08:30:59;;;;;;;0.40;0.40;;;;;;;;;;4996960;28;20227;-62
2022/02/20 08:33:27;;;;;;;0.40;0.40;;;;;;;;;;4992033;28;20203;-63
2022/02/20 08:35:53;;;;;;;0.50;0.50;;;;;;;;;;4978803;28;20452;-62
2022/02/20 08:38:21;;;;;;;0.50;0.50;;;;;;;;;;4975389;28;20208;-64
2022/02/20 08:40:48;;;;;;;0.40;0.40;;;;;;;;;;4974721;28;20206;-64
2022/02/20 08:43:14;;;;;;;0.60;0.60;;;;;;;;;;4991872;28;20583;-65
2022/02/20 08:45:40;;;;;;;0.50;0.50;;;;;;;;;;4992058;28;20193;-63
2022/02/20 08:48:06;;;;;;;0.50;0.50;;;;;;;;;;4994535;28;20423;-65
2022/02/20 08:50:32;;;;;;;0.60;0.60;;;;;;;;;;4977428;28;20428;-63
2022/02/20 08:52:58;;;;;;;0.50;0.50;;;;;;;;;;4998367;28;20212;-65
2022/02/20 08:55:24;;;;;;;0.50;0.50;;;;;;;;;;4993325;28;20693;-64
2022/02/20 08:57:50;;;;;;;0.50;0.50;;;;;;;;;;4992800;28;20414;-64
2022/02/20 09:00:16;;;;;;;0.50;0.50;;;;;;;;;;4997479;28;20177;-64
2022/02/20 09:02:42;;;;;;;0.50;0.50;;;;;;;;;;4993351;28;20203;-64
2022/02/20 09:05:09;;;;;;;0.50;0.50;;;;;;;;;;4999918;28;20606;-64
2022/02/20 09:07:35;;;;;;;0.52;0.52;;;;;;;;;;4991258;28;20182;-63
2022/02/20 09:10:04;;;;;;;0.40;0.40;;;;;;;;;;4976643;28;20190;-63
2022/02/20 09:12:30;;;;;;;0.50;0.50;;;;;;;;;;4994320;28;20276;-63
2022/02/20 09:14:56;;;;;;;0.60;0.60;;;;;;;;;;4994439;28;20253;-63
2022/02/20 09:17:22;;;;;;;0.40;0.40;;;;;;;;;;4995878;28;20245;-63
2022/02/20 09:19:47;;;;;;;0.50;0.50;;;;;;;;;;4994320;28;20243;-64
2022/02/20 09:22:14;;;;;;;0.50;0.50;;;;;;;;;;4994967;28;20465;-63
2022/02/20 09:24:40;;;;;;;0.40;0.40;;;;;;;;;;4995691;28;20417;-64
2022/02/20 09:27:06;;;;;;;0.50;0.50;;;;;;;;;;4996086;28;20224;-63
2022/02/20 09:29:33;;;;;;;0.50;0.50;;;;;;;;;;4992885;28;20474;-64
2022/02/20 09:32:00;;;;;;;0.50;0.50;;;;;;;;;;4990549;28;20198;-63
2022/02/20 09:34:26;;;;;;;0.45;0.45;;;;;;;;;;4993548;28;20173;-63
2022/02/20 09:36:52;;;;;;;0.50;0.50;;;;;;;;;;4993021;28;20614;-62
2022/02/20 09:39:18;;;;;;;0.50;0.50;;;;;;;;;;4997508;28;20436;-63
2022/02/20 09:41:44;;;;;;;0.50;0.50;;;;;;;;;;4993390;28;20476;-64
2022/02/20 09:44:10;;;;;;;0.50;0.50;;;;;;;;;;4993922;28;20441;-64
2022/02/20 09:46:37;;;;;;;0.60;0.60;;;;;;;;;;4993641;28;20592;-64
2022/02/20 09:49:03;;;;;;;0.50;0.50;;;;;;;;;;4993852;28;20259;-64
2022/02/20 09:51:30;;;;;;;0.50;0.50;;;;;;;;;;4993443;28;20202;-64
2022/02/20 09:53:57;;;;;;;0.47;0.47;;;;;;;;;;4993449;28;20783;-63
2022/02/20 09:56:24;;;;;;;0.50;0.50;;;;;;;;;;4993726;28;20576;-63
2022/02/20 09:58:50;;;;;;;0.50;0.50;;;;;;;;;;4993577;28;20194;-65
2022/02/20 10:01:17;;;;;;;0.50;0.50;;;;;;;;;;4992883;28;20202;-64
2022/02/20 10:03:44;;;;;;;0.50;0.50;;;;;;;;;;5002159;28;20182;-64
2022/02/20 10:06:11;;;;;;;0.50;0.50;;;;;;;;;;5008990;28;20206;-65
2022/02/20 10:08:42;;;;;;;0.50;0.50;;;;;;;;;;4993075;28;20468;-64
2022/02/20 10:11:27;;;;;;;0.50;0.50;;;;;;;;;;4992691;28;20265;-64
2022/02/20 10:13:55;;;;;;;0.50;0.50;;;;;;;;;;4990459;28;20189;-64
2022/02/20 10:16:23;;;;;;;0.50;0.50;;;;;;;;;;4993106;28;20202;-64
2022/02/20 10:18:50;;;;;;;0.50;0.50;;;;;;;;;;4992970;28;20174;-64
2022/02/20 10:21:29;;;;;;;0.40;0.40;;;;;;;;;;4992659;28;20245;-64
2022/02/20 10:23:56;;;;;;;0.50;0.50;;;;;;;;;;4992939;28;20614;-63
2022/02/20 10:26:23;;;;;;;0.50;0.50;;;;;;;;;;4992770;28;20708;-64
2022/02/20 10:29:02;;;;;;;0.50;0.50;;;;;;;;;;4992942;28;20232;-64
2022/02/20 10:31:47;;;;;;;0.50;0.50;;;;;;;;;;4992384;28;20204;-65
2022/02/20 10:34:16;;;;;;;0.40;0.40;;;;;;;;;;4993749;28;20549;-65
2022/02/20 10:36:46;;;;;;;0.60;0.60;;;;;;;;;;4993869;28;20245;-65
2022/02/20 10:39:18;;;;;;;0.47;0.47;;;;;;;;;;4997389;28;20243;-65
2022/02/20 10:41:45;;;;;;;0.47;0.47;;;;;;;;;;4992471;28;20206;-65
2022/02/20 10:44:11;;;;;;;0.50;0.50;;;;;;;;;;4992315;28;20253;-64
2022/02/20 10:46:37;;;;;;;0.40;0.40;;;;;;;;;;4992483;28;20289;-64
2022/02/20 10:49:03;;;;;;;0.50;0.50;;;;;;;;;;4992636;28;20432;-64
2022/02/20 10:51:37;;;;;;;0.50;0.50;;;;;;;;;;5004211;28;20488;-62
2022/02/20 10:54:03;;;;;;;0.50;0.50;;;;;;;;;;4976027;28;20413;-64
2022/02/20 10:56:39;;;;;;;0.50;0.50;;;;;;;;;;4991968;28;20273;-63
2022/02/20 10:59:06;;;;;;;0.40;0.40;;;;;;;;;;4974359;28;20244;-63
2022/02/20 11:01:32;;;;;;;0.40;0.40;;;;;;;;;;4985597;28;20179;-64
2022/02/20 11:04:05;;;;;;;0.50;0.50;;;;;;;;;;4991790;28;20531;-63
2022/02/20 11:06:33;;;;;;;0.40;0.40;;;;;;;;;;4987738;28;20487;-63
2022/02/20 11:09:01;;;;;;;0.40;0.40;;;;;;;;;;4978607;28;20178;-63
2022/02/20 11:11:37;;;;;;;0.50;0.50;;;;;;;;;;4985667;28;20184;-63
2022/02/20 11:14:03;;;;;;;0.50;0.50;;;;;;;;;;5011546;28;20248;-63
2022/02/20 11:16:31;;;;;;;0.50;0.50;;;;;;;;;;5012274;28;20201;-63
2022/02/20 11:18:57;;;;;;;0.50;0.50;;;;;;;;;;5008216;28;20306;-65
2022/02/20 11:21:26;;;;;;;0.40;0.40;;;;;;;;;;4991388;28;20174;-64
2022/02/20 11:23:52;;;;;;;0.40;0.40;;;;;;;;;;5006289;28;20260;-65
2022/02/20 11:26:18;;;;;;;0.50;0.50;;;;;;;;;;4989319;28;20220;-64
2022/02/20 11:28:48;;;;;;;0.50;0.50;;;;;;;;;;4990333;28;20178;-63
2022/02/20 11:31:18;;;;;;;0.40;0.40;;;;;;;;;;4990267;28;20405;-64
2022/02/20 11:33:51;;;;;;;0.40;0.40;;;;;;;;;;4988087;28;20293;-63
2022/02/20 11:36:17;;;;;;;0.50;0.50;;;;;;;;;;4990505;28;20186;-63
2022/02/20 11:39:01;;;;;;;0.40;0.40;;;;;;;;;;4990491;28;20252;-64
2022/02/20 11:41:27;;;;;;;0.40;0.40;;;;;;;;;;4988806;28;20175;-63
2022/02/20 11:43:53;;;;;;;0.50;0.50;;;;;;;;;;4990917;28;20177;-64
2022/02/20 11:46:20;;;;;;;0.50;0.50;;;;;;;;;;4991073;28;20198;-63
2022/02/20 11:49:05;;;;;;;0.50;0.50;;;;;;;;;;4957053;28;20196;-62
2022/02/20 11:51:33;;;;;;;0.50;0.50;;;;;;;;;;4989724;28;20225;-62
2022/02/20 11:54:20;;;;;;;0.40;0.40;;;;;;;;;;4990598;28;20167;-64
2022/02/20 11:57:05;;;;;;;0.50;0.50;;;;;;;;;;5003110;28;20841;-63
2022/02/20 11:59:31;;;;;;;0.50;0.50;;;;;;;;;;5000578;28;20189;-63
2022/02/20 12:02:17;;;;;;;0.50;0.50;;;;;;;;;;4989236;28;20197;-64
2022/02/20 12:04:51;;;;;;;0.50;0.50;;;;;;;;;;4986884;28;20174;-61
2022/02/20 12:07:37;;;;;;;0.50;0.50;;;;;;;;;;4989623;28;20190;-62
2022/02/20 12:10:24;;;;;;;0.50;0.50;;;;;;;;;;4987857;28;20229;-61
2022/02/20 12:12:53;;;;;;;0.50;0.50;;;;;;;;;;4987990;28;20701;-60
2022/02/20 12:15:26;;;;;;;0.50;0.50;;;;;;;;;;4989132;28;20674;-62
2022/02/20 12:18:01;;;;;;;0.45;0.45;;;;;;;;;;4989450;28;20321;-60
2022/02/20 12:21:05;;;;;;;0.50;0.50;;;;;;;;;;4987554;28;20190;-58
2022/02/20 12:23:50;;;;;;;0.50;0.50;;;;;;;;;;4988301;28;20182;-62
2022/02/20 12:26:35;;;;;;;0.40;0.40;;;;;;;;;;4953821;28;1129886;-62
2022/02/20 12:29:15;;;;;;;0.50;0.50;;;;;;;;;;4978015;28;20213;-61
2022/02/20 12:31:58;;;;;;;0.50;0.50;;;;;;;;;;4994954;28;20174;-62
2022/02/20 12:34:42;;;;;;;0.50;0.50;;;;;;;;;;4995169;28;20261;-61
2022/02/20 12:37:10;;;;;;;0.40;0.40;;;;;;;;;;4994475;28;20229;-62
2022/02/20 12:39:36;;;;;;;0.40;0.40;;;;;;;;;;4976578;28;20178;-61
2022/02/20 12:42:04;;;;;;;0.50;0.50;;;;;;;;;;4992611;28;20174;-62
2022/02/20 12:44:30;;;;;;;0.50;0.50;;;;;;;;;;4993968;28;20178;-62
2022/02/20 12:46:56;;;;;;;0.50;0.50;;;;;;;;;;4994088;28;20238;-62
2022/02/20 12:49:22;;;;;;;0.50;0.50;;;;;;;;;;4994298;28;20276;-62
2022/02/20 12:51:48;;;;;;;0.40;0.40;;;;;;;;;;4993713;28;20428;-62
2022/02/20 12:54:14;;;;;;;0.40;0.40;;;;;;;;;;4994151;28;20412;-62
2022/02/20 12:56:40;;;;;;;0.40;0.40;;;;;;;;;;4993800;28;20522;-62
2022/02/20 12:59:06;;;;;;;0.50;0.50;;;;;;;;;;4975661;28;20432;-62
2022/02/20 13:01:32;;;;;;;0.40;0.40;;;;;;;;;;4992046;28;20492;-62
2022/02/20 13:03:58;;;;;;;0.40;0.40;;;;;;;;;;4991927;28;20475;-62
2022/02/20 13:06:39;;;;;;;0.40;0.40;;;;;;;;;;4989783;28;20436;-62
2022/02/20 13:09:06;;;;;;;0.50;0.50;;;;;;;;;;4991472;28;20405;-62
2022/02/20 13:11:32;;;;;;;0.40;0.40;;;;;;;;;;4991080;28;20171;-61
2022/02/20 13:14:08;;;;;;;0.50;0.50;;;;;;;;;;4991330;28;20254;-62
2022/02/20 13:16:34;;;;;;;0.50;0.50;;;;;;;;;;4991481;28;20656;-62
2022/02/20 13:19:00;;;;;;;0.50;0.50;;;;;;;;;;4993140;28;20194;-62
2022/02/20 13:21:29;;;;;;;0.50;0.50;;;;;;;;;;4993196;28;20418;-58
2022/02/20 13:23:55;;;;;;;0.43;0.43;;;;;;;;;;4994065;28;20413;-62
2022/02/20 13:26:24;;;;;;;0.40;0.40;;;;;;;;;;4993482;28;20672;-62
2022/02/20 13:28:53;;;;;;;0.50;0.50;;;;;;;;;;4992007;28;20213;-62
2022/02/20 13:31:22;;;;;;;0.40;0.40;;;;;;;;;;4991646;28;20226;-61
2022/02/20 13:33:49;;;;;;;0.50;0.50;;;;;;;;;;4992841;28;20289;-60
2022/02/20 13:36:19;;;;;;;0.40;0.40;;;;;;;;;;4992081;28;20635;-63
2022/02/20 13:38:47;;;;;;;0.40;0.40;;;;;;;;;;4973429;28;20643;-63
2022/02/20 13:41:17;;;;;;;0.40;0.40;;;;;;;;;;4992874;28;20226;-65
2022/02/20 13:43:49;;;;;;;0.40;0.40;;;;;;;;;;4993457;28;20245;-63
2022/02/20 13:46:17;;;;;;;0.40;0.40;;;;;;;;;;4993770;28;20202;-63
2022/02/20 13:48:44;;;;;;;0.50;0.50;;;;;;;;;;4993322;28;20170;-63
2022/02/20 13:51:10;;;;;;;0.43;0.43;;;;;;;;;;4993245;28;20179;-62
2022/02/20 13:53:43;;;;;;;0.40;0.40;;;;;;;;;;4992877;28;20212;-62
2022/02/20 13:56:08;;;;;;;0.50;0.50;;;;;;;;;;4993127;28;20836;-64
2022/02/20 13:58:34;;;;;;;0.40;0.40;;;;;;;;;;4992784;28;20181;-63
2022/02/20 14:01:02;;;;;;;0.40;0.40;;;;;;;;;;4992614;28;20758;-63
2022/02/20 14:03:28;;;;;;;0.40;0.40;;;;;;;;;;4992780;28;20480;-63
2022/02/20 14:05:54;;;;;;;0.40;0.40;;;;;;;;;;4975303;28;20210;-64
2022/02/20 14:08:20;;;;;;;0.50;0.50;;;;;;;;;;4992836;28;20425;-62
2022/02/20 14:10:53;;;;;;;0.50;0.50;;;;;;;;;;4993387;28;20186;-61
2022/02/20 14:13:19;;;;;;;0.40;0.40;;;;;;;;;;4993056;28;20503;-61
2022/02/20 14:15:56;;;;;;;0.40;0.40;;;;;;;;;;4976234;28;20206;-63
2022/02/20 14:18:21;;;;;;;0.40;0.40;;;;;;;;;;4993980;28;20172;-61
2022/02/20 14:20:49;;;;;;;0.60;0.60;;;;;;;;;;4992491;28;20658;-64
2022/02/20 14:23:19;;;;;;;0.40;0.40;;;;;;;;;;4989457;28;20443;-63
2022/02/20 14:25:49;;;;;;;0.40;0.40;;;;;;;;;;4989684;28;20221;-62
2022/02/20 14:28:16;;;;;;;0.50;0.50;;;;;;;;;;4991816;28;20182;-62
2022/02/20 14:30:43;;;;;;;0.40;0.40;;;;;;;;;;5007845;22;20333;-60
2022/02/20 14:33:10;;;;;;;0.40;0.40;;;;;;;;;;4991276;28;20221;-61
2022/02/20 14:35:38;;;;;;;0.50;0.50;;;;;;;;;;4992037;28;20257;-60
2022/02/20 14:38:05;;;;;;;0.40;0.40;;;;;;;;;;4991578;28;20170;-60
2022/02/20 14:40:31;;;;;;;0.40;0.40;;;;;;;;;;4990837;28;20194;-60
2022/02/20 14:42:58;;;;;;;0.40;0.40;;;;;;;;;;4992778;28;20178;-60
2022/02/20 14:45:24;;;;;;;0.40;0.40;;;;;;;;;;4992376;28;20170;-60